createdAt,value
2022-09-29T16:21:09.186Z,11.50
2022-09-29T16:23:41.787Z,13.00
2022-09-29T16:26:20.279Z,13.40
2022-09-29T16:29:08.323Z,13.70
2022-09-29T16:31:38.077Z,13.90
2022-09-29T16:34:23.400Z,14.10
2022-09-29T16:36:54.425Z,14.20
2022-09-29T16:39:26.243Z,14.30
2022-09-29T16:41:55.762Z,14.40
2022-09-29T16:44:27.857Z,14.50
2022-09-29T16:46:59.160Z,14.50
2022-09-29T16:49:30.093Z,14.50
2022-09-29T16:52:04.333Z,14.50
2022-09-29T16:54:34.742Z,14.60
2022-09-29T16:57:25.844Z,14.60
2022-09-29T16:59:55.857Z,14.60
2022-09-29T17:02:25.139Z,14.60
2022-09-29T17:04:54.413Z,14.60
2022-09-29T17:07:25.273Z,14.60
2022-09-29T17:09:56.118Z,14.60
2022-09-29T17:12:26.233Z,14.60
2022-09-29T17:14:55.201Z,14.60
2022-09-29T17:17:25.350Z,14.50
2022-09-29T17:19:56.473Z,14.50
2022-09-29T17:22:32.717Z,14.50
2022-09-29T17:25:01.438Z,13.50
2022-09-29T17:27:48.207Z,14.40
2022-09-29T17:30:20.979Z,14.40
2022-09-29T17:32:50.799Z,14.40
2022-09-29T17:35:21.389Z,14.30
2022-09-29T17:37:51.037Z,14.20
2022-09-29T17:40:23.748Z,14.20
2022-09-29T17:42:52.300Z,14.10
2022-09-29T17:45:22.184Z,14.10
2022-09-29T17:47:50.465Z,14.10
2022-09-29T17:50:26.323Z,14.00
2022-09-29T17:52:56.063Z,14.00
2022-09-29T17:55:24.345Z,13.90
2022-09-29T17:57:54.137Z,13.90
2022-09-29T18:00:24.791Z,13.90
2022-09-29T18:02:57.556Z,13.80
2022-09-29T18:05:26.684Z,13.80
2022-09-29T18:07:58.202Z,13.80
2022-09-29T18:10:30.080Z,13.70
2022-09-29T18:12:58.991Z,13.70
2022-09-29T18:15:27.637Z,13.70
2022-09-29T18:18:00.128Z,13.60
2022-09-29T18:20:30.847Z,13.60
2022-09-29T18:23:00.982Z,13.60
2022-09-29T18:25:30.995Z,14.90
2022-09-29T18:27:59.550Z,13.60
2022-09-29T18:30:30.741Z,13.50
2022-09-29T18:33:02.604Z,13.50
2022-09-29T18:35:32.931Z,13.40
2022-09-29T18:38:03.188Z,13.40
2022-09-29T18:40:32.476Z,13.30
2022-09-29T18:43:00.598Z,13.30
2022-09-29T18:45:30.799Z,13.30
2022-09-29T18:48:00.571Z,13.20
2022-09-29T18:50:30.373Z,13.20
2022-09-29T18:52:59.746Z,13.20
2022-09-29T18:55:31.694Z,13.20
2022-09-29T18:58:01.416Z,13.10
2022-09-29T19:00:33.161Z,13.10
2022-09-29T19:03:03.046Z,13.10
2022-09-29T19:05:32.103Z,13.10
2022-09-29T19:08:02.471Z,13.10
2022-09-29T19:10:33.959Z,13.00
2022-09-29T19:13:04.691Z,13.00
2022-09-29T19:15:35.697Z,13.00
2022-09-29T19:18:05.748Z,12.90
2022-09-29T19:20:33.878Z,12.90
2022-09-29T19:23:02.932Z,12.90
2022-09-29T19:25:35.110Z,12.90
2022-09-29T19:28:06.100Z,12.90
2022-09-29T19:30:36.716Z,12.90
2022-09-29T19:33:05.366Z,12.90
2022-09-29T19:35:33.898Z,12.80
2022-09-29T19:38:02.608Z,12.80
2022-09-29T19:40:35.471Z,12.80
2022-09-29T19:43:05.121Z,12.80
2022-09-29T19:45:37.580Z,12.70
2022-09-29T19:48:06.728Z,12.70
2022-09-29T19:50:52.465Z,12.70
2022-09-29T19:53:21.185Z,12.60
2022-09-29T19:55:51.994Z,12.60
2022-09-29T19:58:20.422Z,12.60
2022-09-29T20:00:48.871Z,12.60
2022-09-29T20:03:16.981Z,12.60
2022-09-29T20:05:45.925Z,12.50
2022-09-29T20:08:14.482Z,12.50
2022-09-29T20:10:42.612Z,12.50
2022-09-29T20:13:14.702Z,12.50
2022-09-29T20:15:46.613Z,12.50
2022-09-29T20:18:15.321Z,12.40
2022-09-29T20:20:44.083Z,12.40
2022-09-29T20:23:12.179Z,12.40
2022-09-29T20:25:40.236Z,12.40
2022-09-29T20:28:14.400Z,12.40
2022-09-29T20:30:44.854Z,12.40
2022-09-29T20:33:13.428Z,12.40
2022-09-29T20:35:41.521Z,12.40
2022-09-29T20:38:11.946Z,12.40
2022-09-29T20:40:40.015Z,12.40
2022-09-29T20:43:11.210Z,12.40
2022-09-29T20:45:39.316Z,12.40
2022-09-29T20:48:10.787Z,12.30
2022-09-29T20:50:39.214Z,12.40
2022-09-29T20:53:07.430Z,12.30
2022-09-29T20:55:35.980Z,12.30
2022-09-29T20:58:04.090Z,12.20
2022-09-29T21:00:32.621Z,12.20
2022-09-29T21:03:01.205Z,12.20
2022-09-29T21:05:30.756Z,12.20
2022-09-29T21:07:59.250Z,12.10
2022-09-29T21:10:27.870Z,12.10
2022-09-29T21:12:56.391Z,12.10
2022-09-29T21:15:24.895Z,12.10
2022-09-29T21:17:53.116Z,12.10
2022-09-29T21:20:21.784Z,12.00
2022-09-29T21:22:52.424Z,12.00
2022-09-29T21:25:20.965Z,12.00
2022-09-29T21:27:51.070Z,12.00
2022-09-29T21:30:19.597Z,12.00
2022-09-29T21:32:48.808Z,11.90
2022-09-29T21:35:17.143Z,11.90
2022-09-29T21:37:45.664Z,11.90
2022-09-29T21:40:15.197Z,11.90
2022-09-29T21:42:43.294Z,11.80
2022-09-29T21:45:11.930Z,11.80
2022-09-29T21:48:11.819Z,11.80
2022-09-29T21:50:40.337Z,11.80
2022-09-29T21:53:08.383Z,11.80
2022-09-29T21:55:42.526Z,11.80
2022-09-29T21:58:10.621Z,11.80
2022-09-29T22:00:40.641Z,11.70
2022-09-29T22:03:09.185Z,11.70
2022-09-29T22:05:42.474Z,11.70
2022-09-29T22:08:12.308Z,11.70
2022-09-29T22:10:42.348Z,11.60
2022-09-29T22:13:10.412Z,11.60
2022-09-29T22:15:38.943Z,11.60
2022-09-29T22:18:07.070Z,11.50
2022-09-29T22:20:37.705Z,11.60
2022-09-29T22:23:06.797Z,11.50
2022-09-29T22:25:35.114Z,11.50
2022-09-29T22:28:05.185Z,11.50
2022-09-29T22:30:34.095Z,11.50
2022-09-29T22:33:02.588Z,11.50
2022-09-29T22:35:34.310Z,11.50
2022-09-29T22:38:03.050Z,11.50
2022-09-29T22:40:33.463Z,11.50
2022-09-29T22:43:01.973Z,11.40
2022-09-29T22:45:33.111Z,11.40
2022-09-29T22:48:02.291Z,11.40
2022-09-29T22:50:32.535Z,11.40
2022-09-29T22:53:01.431Z,11.40
2022-09-29T22:55:31.953Z,11.40
2022-09-29T22:58:00.498Z,11.40
2022-09-29T23:00:28.585Z,11.40
2022-09-29T23:02:58.068Z,11.40
2022-09-29T23:05:26.381Z,11.40
2022-09-29T23:07:54.916Z,11.40
2022-09-29T23:10:24.287Z,11.40
2022-09-29T23:12:52.979Z,11.40
2022-09-29T23:15:21.062Z,11.40
2022-09-29T23:17:49.572Z,11.40
2022-09-29T23:20:19.559Z,11.40
2022-09-29T23:22:47.651Z,11.40
2022-09-29T23:25:16.300Z,11.40
2022-09-29T23:27:44.373Z,11.40
2022-09-29T23:30:13.195Z,11.30
2022-09-29T23:32:41.253Z,11.30
2022-09-29T23:35:10.903Z,11.30
2022-09-29T23:37:57.766Z,11.30
2022-09-29T23:40:26.598Z,11.30
2022-09-29T23:42:55.690Z,11.30
2022-09-29T23:45:23.998Z,11.30
2022-09-29T23:47:52.509Z,11.30
2022-09-29T23:50:21.046Z,11.30
2022-09-29T23:52:50.521Z,11.40
2022-09-29T23:55:18.979Z,11.30
2022-09-29T23:57:47.471Z,11.30
